Terminal Aerodrome Forecast
Issued by NWS Spokane, WA

Home | Current Version | Previous Version | Text Only | Print | Product List | Glossary On
Versions: 1 2 3 4 5 6 7 8 9 10 11 12
000
FTUS46 KOTX 290520
TAFLWS
TAF
KLWS 290520Z 2906/3006 14003KT P6SM -SHRA BKN050 OVC080
     FM290800 00000KT P6SM -RA BKN030 OVC040
     FM291900 VRB04KT P6SM -SHRA BKN050 BKN090
     FM300000 21005KT P6SM BKN060 OVC090=

USA.gov is the U.S. government's official web portal to all federal, state and local government web resources and services.